Darstellungsparameter: Aktuell verwendete Einstellungen:
Skalierung der Graphiken ... ?
xyx+y,   Skalierungsfaktor:      Skalierung: Modus: x, Faktor: 1
Darstellungszeitraum ... ?
Vom - - bis: - -   Zeitraum: 18.03.2019 - 18.03.2019
Min/Max/Avg-Anzeige ... ?
Zeige MMA aktuell
Zeige MMA Monat
Zeige MMA alles
Zeige --A aktuell
Zeige --A Monat
Zeige --A alles
Keine MMA-Anzeige
MMA:
Keine MMA-Graphiken
MMA-Basis: 18.03.2019 - 18.03.2019
Quicknavigation für Darstellung... ?
Tage:      1T, 2T, 3T, 5T -1T -2T -3T -5T +1T +2T +3T +5T
Wochen: 1W, 2W, 3W -1W -2W -3W +1W +2W +3W
Monate: 1M, 3M, 6M -1M -3M -6M +1M +3M +6M
Jahre:    1J, 3J, 5J, 10J -1J -3J -5J -10J +1J +3J +5J +10J
Nutze für die Darstellung ... ?
Originaldaten oder Mittelwerte auf ...
Stundenbasis Tagesbasis Wochenbasis
Monatsbasis Jahresbasis      Datenbasis: Original-Daten
Darstellen als:
Statistik (Auto) Statistik J:M      Darstellung:
Zur Graphik,    zurück zur Übersicht aller Sensoren.
 
Tabellarische Datenbersicht: ?
 
Sensor: Nr:Datum:Temp:Feuchte:Taupunkt:
Aussen-T/F 1 18-03-2019 00:00:00 3.4 C 89 % 1.76 C
2 18-03-2019 00:05:00 3.3 C 89 % 1.67 C
3 18-03-2019 00:10:00 3.2 C 89 % 1.57 C
4 18-03-2019 00:15:00 3.1 C 89 % 1.47 C
5 18-03-2019 00:20:00 3 C 89 % 1.37 C
6 18-03-2019 00:25:00 2.9 C 90 % 1.43 C
7 18-03-2019 00:30:00 2.8 C 90 % 1.33 C
8 18-03-2019 00:35:00 2.7 C 90 % 1.23 C
9 18-03-2019 00:40:00 2.7 C 91 % 1.38 C
10 18-03-2019 00:45:00 2.7 C 92 % 1.53 C
11 18-03-2019 00:50:00 2.8 C 91 % 1.48 C
12 18-03-2019 00:55:00 2.8 C 91 % 1.48 C
13 18-03-2019 01:00:00 2.7 C 91 % 1.38 C
14 18-03-2019 01:05:00 2.6 C 91 % 1.28 C
15 18-03-2019 01:10:00 2.6 C 92 % 1.43 C
16 18-03-2019 01:15:00 2.6 C 92 % 1.43 C
17 18-03-2019 01:20:00 2.7 C 92 % 1.53 C
18 18-03-2019 01:25:00 2.7 C 92 % 1.53 C
19 18-03-2019 01:30:00 2.6 C 92 % 1.43 C
20 18-03-2019 01:35:00 2.5 C 91 % 1.18 C
21 18-03-2019 01:40:00 2.4 C 91 % 1.08 C
22 18-03-2019 01:45:00 2.3 C 92 % 1.14 C
23 18-03-2019 01:50:00 2.4 C 92 % 1.24 C
24 18-03-2019 01:55:00 2.5 C 92 % 1.34 C
25 18-03-2019 02:00:00 2.7 C 93 % 1.68 C
Sensor: Nr:Datum:Temp:Feuchte:Taupunkt:
Aussen-T/F 26 18-03-2019 02:05:00 2.8 C 93 % 1.78 C
27 18-03-2019 02:10:00 2.9 C 92 % 1.73 C
28 18-03-2019 02:15:00 2.9 C 92 % 1.73 C
29 18-03-2019 02:20:00 2.9 C 92 % 1.73 C
30 18-03-2019 02:25:00 2.9 C 92 % 1.73 C
31 18-03-2019 02:30:00 3.1 C 92 % 1.93 C
32 18-03-2019 02:35:00 3.3 C 91 % 1.98 C
33 18-03-2019 02:40:00 3.6 C 90 % 2.12 C
34 18-03-2019 02:45:00 3.8 C 89 % 2.16 C
35 18-03-2019 02:50:00 3.9 C 88 % 2.1 C
36 18-03-2019 02:55:00 3.9 C 88 % 2.1 C
37 18-03-2019 03:00:00 3.9 C 88 % 2.1 C
38 18-03-2019 03:05:00 3.9 C 88 % 2.1 C
39 18-03-2019 03:10:00 3.8 C 87 % 1.84 C
40 18-03-2019 03:15:00 3.8 C 87 % 1.84 C
41 18-03-2019 03:20:00 3.8 C 88 % 2 C
42 18-03-2019 03:25:00 3.7 C 88 % 1.9 C
43 18-03-2019 03:30:00 3.6 C 88 % 1.8 C
44 18-03-2019 03:35:00 3.4 C 89 % 1.76 C
45 18-03-2019 03:40:00 3.4 C 89 % 1.76 C
46 18-03-2019 03:45:00 3.3 C 89 % 1.67 C
47 18-03-2019 03:50:00 3.4 C 89 % 1.76 C
48 18-03-2019 03:55:00 3.4 C 90 % 1.92 C
49 18-03-2019 04:00:00 3.4 C 89 % 1.76 C
50 18-03-2019 04:05:00 3.4 C 89 % 1.76 C
Sensor: Nr:Datum:Temp:Feuchte:Taupunkt:
Aussen-T/F 51 18-03-2019 04:10:00 3.4 C 90 % 1.92 C
52 18-03-2019 04:15:00 3.4 C 89 % 1.76 C
53 18-03-2019 04:20:00 3.4 C 89 % 1.76 C
54 18-03-2019 04:25:00 3.3 C 89 % 1.67 C
55 18-03-2019 04:30:00 3.2 C 89 % 1.57 C
56 18-03-2019 04:35:00 3.2 C 90 % 1.72 C
57 18-03-2019 04:40:00 3.1 C 90 % 1.62 C
58 18-03-2019 04:45:00 3.1 C 90 % 1.62 C
59 18-03-2019 04:50:00 3.1 C 90 % 1.62 C
60 18-03-2019 04:55:00 3 C 90 % 1.52 C
61 18-03-2019 05:00:00 2.9 C 90 % 1.43 C
62 18-03-2019 05:05:00 2.9 C 90 % 1.43 C
63 18-03-2019 05:10:00 2.9 C 90 % 1.43 C
64 18-03-2019 05:15:00 2.9 C 90 % 1.43 C
65 18-03-2019 05:20:00 3.1 C 90 % 1.62 C
66 18-03-2019 05:25:00 3.1 C 90 % 1.62 C
67 18-03-2019 05:30:00 3.2 C 90 % 1.72 C
68 18-03-2019 05:35:00 3.2 C 89 % 1.57 C
69 18-03-2019 05:40:00 3.2 C 89 % 1.57 C
70 18-03-2019 05:45:00 3.2 C 89 % 1.57 C
71 18-03-2019 05:50:00 3.3 C 89 % 1.67 C
72 18-03-2019 05:55:00 3.4 C 89 % 1.76 C
73 18-03-2019 06:00:00 3.5 C 88 % 1.7 C
74 18-03-2019 06:05:00 3.6 C 88 % 1.8 C
75 18-03-2019 06:10:00 3.7 C 87 % 1.74 C
Sensor: Nr:Datum:Temp:Feuchte:Taupunkt:
Aussen-T/F 76 18-03-2019 06:15:00 3.8 C 87 % 1.84 C
77 18-03-2019 06:20:00 4 C 86 % 1.88 C
78 18-03-2019 06:25:00 4.1 C 86 % 1.97 C
79 18-03-2019 06:30:00 4.2 C 86 % 2.07 C
80 18-03-2019 06:35:00 4.2 C 86 % 2.07 C
81 18-03-2019 06:40:00 4.1 C 86 % 1.97 C
82 18-03-2019 06:45:00 4.1 C 86 % 1.97 C
83 18-03-2019 06:50:00 4.1 C 86 % 1.97 C
84 18-03-2019 06:55:00 4.1 C 86 % 1.97 C
85 18-03-2019 07:00:00 4 C 86 % 1.88 C
86 18-03-2019 07:05:00 3.9 C 86 % 1.78 C
87 18-03-2019 07:10:00 3.9 C 87 % 1.94 C
88 18-03-2019 07:15:00 3.9 C 87 % 1.94 C
89 18-03-2019 07:20:00 3.9 C 88 % 2.1 C
90 18-03-2019 07:25:00 4.1 C 87 % 2.14 C
91 18-03-2019 07:30:00 4.3 C 87 % 2.33 C
92 18-03-2019 07:35:00 4.3 C 87 % 2.33 C
93 18-03-2019 07:40:00 4.4 C 86 % 2.27 C
94 18-03-2019 07:45:00 4.6 C 86 % 2.47 C
95 18-03-2019 07:50:00 4.7 C 85 % 2.4 C
96 18-03-2019 07:55:00 4.7 C 85 % 2.4 C
97 18-03-2019 08:00:00 4.8 C 85 % 2.5 C
98 18-03-2019 08:05:00 4.8 C 85 % 2.5 C
99 18-03-2019 08:10:00 4.8 C 85 % 2.5 C
100 18-03-2019 08:15:00 4.9 C 85 % 2.6 C
Sensor: Nr:Datum:Temp:Feuchte:Taupunkt:
Aussen-T/F 101 18-03-2019 08:20:00 4.9 C 86 % 2.76 C
102 18-03-2019 08:25:00 5 C 86 % 2.86 C
103 18-03-2019 08:30:00 5.1 C 86 % 2.96 C
104 18-03-2019 08:35:00 5.1 C 86 % 2.96 C
105 18-03-2019 08:40:00 5.2 C 86 % 3.05 C
106 18-03-2019 08:45:00 5.3 C 86 % 3.15 C
107 18-03-2019 08:50:00 5.3 C 86 % 3.15 C
108 18-03-2019 08:55:00 5.3 C 87 % 3.32 C
109 18-03-2019 09:00:00 5.2 C 88 % 3.38 C
110 18-03-2019 09:05:00 5.1 C 89 % 3.44 C
111 18-03-2019 09:10:00 5 C 89 % 3.34 C
112 18-03-2019 09:15:00 5 C 90 % 3.5 C
113 18-03-2019 09:20:00 5.1 C 90 % 3.6 C
114 18-03-2019 09:25:00 5.1 C 90 % 3.6 C
115 18-03-2019 09:30:00 5.2 C 91 % 3.85 C
116 18-03-2019 09:35:00 5.1 C 89 % 3.44 C
117 18-03-2019 09:40:00 4.9 C 89 % 3.24 C
118 18-03-2019 09:45:00 4.9 C 90 % 3.4 C
119 18-03-2019 09:50:00 5 C 90 % 3.5 C
120 18-03-2019 09:55:00 5.2 C 90 % 3.7 C
121 18-03-2019 10:00:00 5.3 C 90 % 3.8 C
122 18-03-2019 10:05:00 5.6 C 90 % 4.09 C
123 18-03-2019 10:10:00 5.9 C 89 % 4.23 C
124 18-03-2019 10:15:00 6.2 C 88 % 4.36 C
125 18-03-2019 10:20:00 6.3 C 87 % 4.3 C
Sensor: Nr:Datum:Temp:Feuchte:Taupunkt:
Aussen-T/F 126 18-03-2019 10:25:00 6.4 C 85 % 4.07 C
127 18-03-2019 10:30:00 6.4 C 84 % 3.9 C
128 18-03-2019 10:35:00 6.5 C 84 % 4 C
129 18-03-2019 10:40:00 6.7 C 84 % 4.19 C
130 18-03-2019 10:45:00 6.9 C 84 % 4.39 C
131 18-03-2019 10:50:00 7.1 C 82 % 4.24 C
132 18-03-2019 10:55:00 7.1 C 81 % 4.07 C
133 18-03-2019 11:00:00 7 C 81 % 3.97 C
134 18-03-2019 11:05:00 7 C 82 % 4.14 C
135 18-03-2019 11:10:00 7.2 C 82 % 4.34 C
136 18-03-2019 11:15:00 7.4 C 81 % 4.36 C
137 18-03-2019 11:20:00 7.7 C 80 % 4.47 C
138 18-03-2019 11:25:00 7.7 C 78 % 4.11 C
139 18-03-2019 11:30:00 7.7 C 78 % 4.11 C
140 18-03-2019 11:35:00 7.9 C 77 % 4.12 C
141 18-03-2019 11:40:00 8.1 C 74 % 3.75 C
142 18-03-2019 11:45:00 8.2 C 72 % 3.46 C
143 18-03-2019 11:50:00 8.4 C 72 % 3.65 C
144 18-03-2019 11:55:00 8.6 C 72 % 3.85 C
145 18-03-2019 12:00:00 8.7 C 70 % 3.54 C
146 18-03-2019 12:05:00 8.6 C 68 % 3.04 C
147 18-03-2019 12:10:00 8.5 C 70 % 3.35 C
148 18-03-2019 12:15:00 8.8 C 68 % 3.23 C
149 18-03-2019 12:20:00 9.1 C 68 % 3.52 C
150 18-03-2019 12:25:00 9.1 C 65 % 2.88 C
Sensor: Nr:Datum:Temp:Feuchte:Taupunkt:
Aussen-T/F 151 18-03-2019 12:30:00 8.8 C 66 % 2.81 C
152 18-03-2019 12:35:00 8.6 C 70 % 3.45 C
153 18-03-2019 12:40:00 7.5 C 75 % 3.36 C
154 18-03-2019 12:45:00 6.7 C 79 % 3.32 C
155 18-03-2019 12:50:00 6.3 C 81 % 3.29 C
156 18-03-2019 12:55:00 6.1 C 83 % 3.44 C
157 18-03-2019 13:00:00 6.1 C 85 % 3.77 C
158 18-03-2019 13:05:00 6 C 85 % 3.67 C
159 18-03-2019 13:10:00 6 C 86 % 3.84 C
160 18-03-2019 13:15:00 6.1 C 86 % 3.94 C
161 18-03-2019 13:20:00 6.2 C 86 % 4.04 C
162 18-03-2019 13:25:00 6.4 C 87 % 4.4 C
163 18-03-2019 13:30:00 6.7 C 87 % 4.69 C
164 18-03-2019 13:35:00 6.8 C 85 % 4.46 C
165 18-03-2019 13:40:00 7.1 C 85 % 4.75 C
166 18-03-2019 13:45:00 7.3 C 84 % 4.78 C
167 18-03-2019 13:50:00 7.5 C 82 % 4.63 C
168 18-03-2019 13:55:00 7.8 C 80 % 4.57 C
169 18-03-2019 14:00:00 8.2 C 78 % 4.6 C
170 18-03-2019 14:05:00 8.6 C 78 % 4.99 C
171 18-03-2019 14:10:00 8.7 C 76 % 4.71 C
172 18-03-2019 14:15:00 8.6 C 77 % 4.8 C
173 18-03-2019 14:20:00 8.2 C 72 % 3.46 C
174 18-03-2019 14:25:00 8 C 74 % 3.66 C
175 18-03-2019 14:30:00 8.2 C 72 % 3.46 C
Sensor: Nr:Datum:Temp:Feuchte:Taupunkt:
Aussen-T/F 176 18-03-2019 14:35:00 8.4 C 71 % 3.46 C
177 18-03-2019 14:40:00 8.7 C 69 % 3.34 C
178 18-03-2019 14:45:00 8.8 C 67 % 3.02 C
179 18-03-2019 14:50:00 8.7 C 66 % 2.71 C
180 18-03-2019 14:55:00 8.1 C 73 % 3.56 C
181 18-03-2019 15:00:00 7.3 C 79 % 3.91 C
182 18-03-2019 15:05:00 6.8 C 82 % 3.95 C
183 18-03-2019 15:10:00 6.4 C 85 % 4.07 C
184 18-03-2019 15:15:00 6.3 C 86 % 4.14 C
185 18-03-2019 15:20:00 6.3 C 88 % 4.46 C
186 18-03-2019 15:25:00 6.3 C 86 % 4.14 C
187 18-03-2019 15:30:00 6.5 C 88 % 4.66 C
188 18-03-2019 15:35:00 6.7 C 88 % 4.86 C
189 18-03-2019 15:40:00 6.8 C 88 % 4.96 C
190 18-03-2019 15:45:00 6.9 C 86 % 4.72 C
191 18-03-2019 15:50:00 7.1 C 88 % 5.25 C
192 18-03-2019 15:55:00 7.2 C 87 % 5.19 C
193 18-03-2019 16:00:00 7.3 C 87 % 5.28 C
194 18-03-2019 16:05:00 7.2 C 87 % 5.19 C
195 18-03-2019 16:10:00 7.1 C 87 % 5.09 C
196 18-03-2019 16:15:00 6.8 C 87 % 4.79 C
197 18-03-2019 16:20:00 6.7 C 88 % 4.86 C
198 18-03-2019 16:25:00 6.6 C 88 % 4.76 C
199 18-03-2019 16:30:00 6.6 C 89 % 4.92 C
200 18-03-2019 16:35:00 6.6 C 89 % 4.92 C
Sensor: Nr:Datum:Temp:Feuchte:Taupunkt:
Aussen-T/F 201 18-03-2019 16:40:00 6.7 C 85 % 4.36 C
202 18-03-2019 16:45:00 6.8 C 83 % 4.12 C
203 18-03-2019 16:50:00 7 C 83 % 4.32 C
204 18-03-2019 16:55:00 7.1 C 81 % 4.07 C
205 18-03-2019 17:00:00 7.3 C 82 % 4.44 C
206 18-03-2019 17:05:00 7.7 C 79 % 4.3 C
207 18-03-2019 17:10:00 8.2 C 78 % 4.6 C
208 18-03-2019 17:15:00 8.5 C 75 % 4.33 C
209 18-03-2019 17:20:00 8.5 C 73 % 3.95 C
210 18-03-2019 17:25:00 8.3 C 73 % 3.75 C
211 18-03-2019 17:30:00 8.1 C 74 % 3.75 C
212 18-03-2019 17:35:00 7.9 C 72 % 3.17 C
213 18-03-2019 17:40:00 7.8 C 72 % 3.08 C
214 18-03-2019 17:45:00 7.8 C 72 % 3.08 C
215 18-03-2019 17:50:00 7.7 C 70 % 2.58 C
216 18-03-2019 17:55:00 7.7 C 72 % 2.98 C
217 18-03-2019 18:00:00 7.6 C 70 % 2.49 C
218 18-03-2019 18:05:00 7.5 C 72 % 2.79 C
219 18-03-2019 18:10:00 7.4 C 72 % 2.69 C
220 18-03-2019 18:15:00 7.6 C 75 % 3.46 C
221 18-03-2019 18:20:00 7.7 C 73 % 3.18 C
222 18-03-2019 18:25:00 7.9 C 74 % 3.56 C
223 18-03-2019 18:30:00 7.9 C 75 % 3.75 C
224 18-03-2019 18:35:00 7.8 C 76 % 3.84 C
225 18-03-2019 18:40:00 7.6 C 77 % 3.83 C
Sensor: Nr:Datum:Temp:Feuchte:Taupunkt:
Aussen-T/F 226 18-03-2019 18:45:00 7.3 C 79 % 3.91 C
227 18-03-2019 18:50:00 7 C 80 % 3.79 C
228 18-03-2019 18:55:00 6.6 C 81 % 3.58 C
229 18-03-2019 19:00:00 6.3 C 82 % 3.46 C
230 18-03-2019 19:05:00 5.9 C 82 % 3.07 C
231 18-03-2019 19:10:00 5.6 C 83 % 2.95 C
232 18-03-2019 19:15:00 5.4 C 85 % 3.09 C
233 18-03-2019 19:20:00 5.2 C 85 % 2.89 C
234 18-03-2019 19:25:00 5.1 C 86 % 2.96 C
235 18-03-2019 19:30:00 4.9 C 86 % 2.76 C
236 18-03-2019 19:35:00 4.9 C 87 % 2.92 C
237 18-03-2019 19:40:00 4.9 C 87 % 2.92 C
238 18-03-2019 19:45:00 4.8 C 87 % 2.82 C
239 18-03-2019 19:50:00 4.8 C 87 % 2.82 C
240 18-03-2019 19:55:00 4.7 C 87 % 2.73 C
241 18-03-2019 20:00:00 4.6 C 86 % 2.47 C
242 18-03-2019 20:05:00 4.4 C 86 % 2.27 C
243 18-03-2019 20:10:00 4.3 C 86 % 2.17 C
244 18-03-2019 20:15:00 4.2 C 86 % 2.07 C
245 18-03-2019 20:20:00 4.1 C 85 % 1.81 C
246 18-03-2019 20:25:00 4.1 C 86 % 1.97 C
247 18-03-2019 20:30:00 4 C 86 % 1.88 C
248 18-03-2019 20:35:00 3.9 C 86 % 1.78 C
249 18-03-2019 20:40:00 3.8 C 86 % 1.68 C
250 18-03-2019 20:45:00 3.7 C 86 % 1.58 C
Sensor: Nr:Datum:Temp:Feuchte:Taupunkt:
Aussen-T/F 251 18-03-2019 20:50:00 3.6 C 86 % 1.48 C
252 18-03-2019 20:55:00 3.5 C 87 % 1.55 C
253 18-03-2019 21:00:00 3.4 C 87 % 1.45 C
254 18-03-2019 21:05:00 3.3 C 87 % 1.35 C
255 18-03-2019 21:10:00 3.2 C 87 % 1.25 C
256 18-03-2019 21:15:00 3.2 C 87 % 1.25 C
257 18-03-2019 21:20:00 3.2 C 88 % 1.41 C
258 18-03-2019 21:25:00 3.1 C 88 % 1.31 C
259 18-03-2019 21:30:00 3.1 C 88 % 1.31 C
260 18-03-2019 21:35:00 3.1 C 88 % 1.31 C
261 18-03-2019 21:40:00 3 C 88 % 1.21 C
262 18-03-2019 21:45:00 2.9 C 89 % 1.27 C
263 18-03-2019 21:50:00 2.8 C 89 % 1.17 C
264 18-03-2019 21:55:00 2.8 C 89 % 1.17 C
265 18-03-2019 22:00:00 2.7 C 89 % 1.07 C
266 18-03-2019 22:05:00 2.6 C 89 % 0.97 C
267 18-03-2019 22:10:00 2.4 C 89 % 0.78 C
268 18-03-2019 22:15:00 2.3 C 89 % 0.68 C
269 18-03-2019 22:20:00 2.1 C 89 % 0.48 C
270 18-03-2019 22:25:00 1.9 C 89 % 0.28 C
271 18-03-2019 22:30:00 1.8 C 90 % 0.34 C
272 18-03-2019 22:35:00 1.8 C 90 % 0.34 C
273 18-03-2019 22:40:00 1.8 C 90 % 0.34 C
274 18-03-2019 22:45:00 1.7 C 91 % 0.39 C
275 18-03-2019 22:50:00 1.7 C 91 % 0.39 C
Sensor: Nr:Datum:Temp:Feuchte:Taupunkt:
Aussen-T/F 276 18-03-2019 22:55:00 1.7 C 91 % 0.39 C
277 18-03-2019 23:00:00 1.6 C 91 % 0.29 C
278 18-03-2019 23:05:00 1.6 C 91 % 0.29 C
279 18-03-2019 23:10:00 1.6 C 92 % 0.44 C
280 18-03-2019 23:15:00 1.6 C 92 % 0.44 C
281 18-03-2019 23:20:00 1.6 C 92 % 0.44 C
282 18-03-2019 23:25:00 1.6 C 92 % 0.44 C
283 18-03-2019 23:30:00 1.5 C 92 % 0.35 C
284 18-03-2019 23:35:00 1.4 C 92 % 0.25 C
285 18-03-2019 23:40:00 1.4 C 92 % 0.25 C
286 18-03-2019 23:45:00 1.3 C 92 % 0.15 C
287 18-03-2019 23:50:00 1.3 C 92 % 0.15 C
288 18-03-2019 23:55:00 1.3 C 92 % 0.15 C

Legende:
   Min
   Max


Maximal/Minimal-Werte vom 18.03.2019 - 18.03.2019

Sensor Min Max Avg
Temp
(Aussen-T/F)
1.3 °C
18-03-2019  23:45:00
9.1 °C
18-03-2019  12:20:00
4.96 °C
Feuchte
(Aussen-T/F)
65 %
18-03-2019  12:25:00
93 %
18-03-2019  02:00:00
85.15 %
Taupunkt
(Aussen-T/F)
0.15 C
18-03-2019  23:45:00
5.28 C
18-03-2019  16:00:00
2.62 C

Die Daten stammen von einer Davis Vantage Pro 2 Wetter-Station und werden unter Linux mit der Software wview2wettercgi und aufbereitet. Alle Angaben erfolgen ohne Gewähr für ihre Vollständigkeit oder Richtigkeit.
Kontakt: Rainer Krienke krienke@uni-koblenz.de . Meine Webseiten an der Uni Koblenz oder privat.
Version: $Revision: 0.78 $